Time;durP1;ratioP1;P1;durP2;ratioP2;P2;SDS_P1;SDS_P2;PMS_P1;PMS_P2;Temp;Humidity;BMP_temperature;BMP_pressure;BME280_temperature;BME280_humidity;BME280_pressure;Samples;Min_cycle;Max_cycle;Signal;HPM_P1;HPM_P2
2022/07/22 00:01:48;;;;;;;;;;;;;;;17.35;100.00;99101.94;1728793;82;20122;-68
2022/07/22 00:04:14;;;;;;;;;;;;;;;17.22;100.00;99103.61;1777739;80;20188;-69
2022/07/22 00:06:41;;;;;;;;;;;;;;;17.13;100.00;99108.95;1784364;80;20125;-69
2022/07/22 00:09:08;;;;;;;;;;;;;;;17.04;100.00;99110.00;1779688;80;21134;-68
2022/07/22 00:11:35;;;;;;;;;;;;;;;16.93;100.00;99108.89;1779092;80;20153;-69
2022/07/22 00:14:03;;;;;;;;;;;;;;;16.85;100.00;99108.80;1776878;80;20085;-68
2022/07/22 00:16:29;;;;;;;;;;;;;;;16.76;100.00;99104.65;1764070;80;20092;-68
2022/07/22 00:18:56;;;;;;;;;;;;;;;16.73;100.00;99110.66;1784369;80;20112;-69
2022/07/22 00:21:23;;;;;;;;;;;;;;;16.67;100.00;99100.49;1760611;80;21149;-69
2022/07/22 00:23:51;;;;;;;;;;;;;;;16.65;100.00;99104.61;1729153;81;20131;-69
2022/07/22 00:26:17;;;;;;;;;;;;;;;16.55;100.00;99099.42;1741361;82;20455;-68
2022/07/22 00:28:43;;;;;;;;;;;;;;;16.44;100.00;99105.62;1740482;82;20201;-68
2022/07/22 00:31:10;;;;;;;;;;;;;;;16.41;100.00;99104.86;1738598;82;20482;-69
2022/07/22 00:33:37;;;;;;;;;;;;;;;16.33;100.00;99107.72;1724937;81;21157;-68
2022/07/22 00:36:06;;;;;;;;;;;;;;;16.27;100.00;99108.39;1738387;82;20119;-68
2022/07/22 00:38:33;;;;;;;;;;;;;;;16.22;100.00;99111.20;1734045;82;20413;-69
2022/07/22 00:41:00;;;;;;;;;;;;;;;16.15;100.00;99112.72;1731426;82;20432;-69
2022/07/22 00:43:26;;;;;;;;;;;;;;;16.08;100.00;99107.69;1742366;82;20416;-68
2022/07/22 00:45:53;;;;;;;;;;;;;;;16.01;100.00;99105.94;1732024;82;20672;-68
2022/07/22 00:48:19;;;;;;;;;;;;;;;15.96;100.00;99108.74;1749949;80;20131;-68
2022/07/22 00:50:46;;;;;;;;;;;;;;;15.90;100.00;99109.92;1726243;82;20096;-68
2022/07/22 00:53:12;;;;;;;;;;;;;;;15.90;100.00;99106.69;1715654;83;20139;-68
2022/07/22 00:55:39;;;;;;;;;;;;;;;15.93;100.00;99114.20;1697348;83;20110;-68
2022/07/22 00:58:06;;;;;;;;;;;;;;;15.88;100.00;99108.89;1696902;83;20602;-69
2022/07/22 01:00:32;;;;;;;;;;;;;;;15.81;100.00;99113.34;1733014;82;20217;-69
2022/07/22 01:02:59;;;;;;;;;;;;;;;15.78;100.00;99114.50;1695651;83;20421;-69
2022/07/22 01:05:27;;;;;;;;;;;;;;;15.70;100.00;99106.49;1695045;83;20079;-68
2022/07/22 01:07:54;;;;;;;;;;;;;;;15.70;100.00;99111.11;1695166;83;20087;-68
2022/07/22 01:10:21;;;;;;;;;;;;;;;15.67;100.00;99111.68;1698483;83;21246;-68
2022/07/22 01:12:48;;;;;;;;;;;;;;;15.57;100.00;99106.70;1698782;82;20113;-69
2022/07/22 01:15:16;;;;;;;;;;;;;;;15.49;100.00;99115.50;1695830;83;20086;-69
2022/07/22 01:17:44;;;;;;;;;;;;;;;15.43;100.00;99107.20;1713869;83;20137;-68
2022/07/22 01:20:12;;;;;;;;;;;;;;;15.35;100.00;99103.84;1696876;83;20123;-68
2022/07/22 01:22:40;;;;;;;;;;;;;;;15.32;100.00;99108.50;1694664;83;21307;-68
2022/07/22 01:25:07;;;;;;;;;;;;;;;15.39;100.00;99118.38;1695487;83;20237;-68
2022/07/22 01:27:34;;;;;;;;;;;;;;;15.42;100.00;99126.70;1729292;82;20156;-69
2022/07/22 01:30:06;;;;;;;;;;;;;;;15.39;100.00;99126.50;1732275;82;20134;-68
2022/07/22 01:32:33;;;;;;;;;;;;;;;15.40;100.00;99132.15;1698545;83;20118;-68
2022/07/22 01:35:00;;;;;;;;;;;;;;;15.35;100.00;99134.38;1694383;83;21156;-68
2022/07/22 01:37:27;;;;;;;;;;;;;;;15.29;100.00;99128.02;1697014;83;20441;-68
2022/07/22 01:39:54;;;;;;;;;;;;;;;15.25;100.00;99124.29;1703534;83;20097;-68
2022/07/22 01:42:20;;;;;;;;;;;;;;;15.22;100.00;99129.19;1696706;83;20130;-68
2022/07/22 01:44:48;;;;;;;;;;;;;;;15.28;100.00;99129.10;1721659;82;20083;-68
2022/07/22 01:47:15;;;;;;;;;;;;;;;15.32;100.00;99128.77;1712094;82;21168;-68
2022/07/22 01:49:43;;;;;;;;;;;;;;;15.32;100.00;99136.33;1722710;81;20347;-68
2022/07/22 01:52:10;;;;;;;;;;;;;;;15.32;100.00;99131.48;1727251;80;20198;-68
2022/07/22 01:54:38;;;;;;;;;;;;;;;15.34;100.00;99130.64;1729909;81;20147;-68
2022/07/22 01:57:05;;;;;;;;;;;;;;;15.34;100.00;99133.34;1745868;82;20099;-68
2022/07/22 01:59:31;;;;;;;;;;;;;;;15.34;100.00;99124.67;1730794;82;21221;-68
2022/07/22 02:02:00;;;;;;;;;;;;;;;15.35;100.00;99122.22;1726057;82;20834;-68
2022/07/22 02:04:27;;;;;;;;;;;;;;;15.41;100.00;99128.36;1743925;82;20143;-68
2022/07/22 02:06:54;;;;;;;;;;;;;;;15.42;100.00;99127.25;1728387;82;20650;-68
2022/07/22 02:09:21;;;;;;;;;;;;;;;15.47;100.00;99129.07;1744136;82;20159;-68
2022/07/22 02:11:50;;;;;;;;;;;;;;;15.53;100.00;99140.87;1744322;82;21150;-68
2022/07/22 02:14:16;;;;;;;;;;;;;;;15.57;100.00;99135.09;1742055;82;20099;-68
2022/07/22 02:16:43;;;;;;;;;;;;;;;15.61;100.00;99140.18;1731380;82;20449;-68
2022/07/22 02:19:11;;;;;;;;;;;;;;;15.58;100.00;99136.72;1730632;82;20095;-68
2022/07/22 02:21:39;;;;;;;;;;;;;;;15.56;100.00;99136.21;1744270;82;20412;-68
2022/07/22 02:24:06;;;;;;;;;;;;;;;15.57;100.00;99141.86;1743473;82;21253;-68
2022/07/22 02:26:34;;;;;;;;;;;;;;;15.59;100.00;99143.73;1757185;80;20451;-68
2022/07/22 02:29:01;;;;;;;;;;;;;;;15.58;100.00;99146.72;1758680;80;20072;-69
2022/07/22 02:31:29;;;;;;;;;;;;;;;15.61;100.00;99151.55;1773918;80;20120;-69
2022/07/22 02:33:56;;;;;;;;;;;;;;;15.63;100.00;99154.77;1782058;80;20140;-68
2022/07/22 02:36:23;;;;;;;;;;;;;;;15.65;100.00;99155.25;1777021;80;21948;-68
2022/07/22 02:38:51;;;;;;;;;;;;;;;15.64;100.00;99149.60;1724525;82;20149;-68
2022/07/22 02:41:17;;;;;;;;;;;;;;;15.61;100.00;99146.94;1730717;82;20083;-68
2022/07/22 02:43:46;;;;;;;;;;;;;;;15.57;100.00;99144.56;1730398;82;20087;-67
2022/07/22 02:46:12;;;;;;;;;;;;;;;15.58;100.00;99157.53;1741168;82;20091;-68
2022/07/22 02:48:39;;;;;;;;;;;;;;;15.55;100.00;99147.31;1751001;82;21213;-68
2022/07/22 02:51:06;;;;;;;;;;;;;;;15.52;100.00;99148.71;1691747;83;20104;-68
2022/07/22 02:53:34;;;;;;;;;;;;;;;15.51;100.00;99147.67;1691933;83;20104;-68
2022/07/22 02:56:01;;;;;;;;;;;;;;;15.54;100.00;99155.19;1696082;83;20086;-68
2022/07/22 02:58:27;;;;;;;;;;;;;;;15.60;100.00;99156.14;1694621;83;20089;-68
2022/07/22 03:00:56;;;;;;;;;;;;;;;15.68;100.00;99157.91;1740729;82;22087;-68
2022/07/22 03:03:23;;;;;;;;;;;;;;;15.76;100.00;99159.98;1747258;82;20098;-68
2022/07/22 03:05:51;;;;;;;;;;;;;;;15.84;100.00;99166.06;1738951;82;20099;-69
2022/07/22 03:08:23;;;;;;;;;;;;;;;15.92;100.00;99168.06;1739090;82;20095;-69
2022/07/22 03:10:52;;;;;;;;;;;;;;;15.99;100.00;99165.77;1714684;82;20085;-69
2022/07/22 03:13:19;;;;;;;;;;;;;;;16.05;100.00;99167.30;1703082;81;21262;-68
2022/07/22 03:15:47;;;;;;;;;;;;;;;16.16;100.00;99172.52;1711992;83;20111;-69
2022/07/22 03:18:15;;;;;;;;;;;;;;;16.22;100.00;99172.69;1701613;83;20141;-68
2022/07/22 03:20:44;;;;;;;;;;;;;;;16.34;100.00;99172.99;1700719;83;20714;-68
2022/07/22 03:23:10;;;;;;;;;;;;;;;16.43;100.00;99182.55;1704217;82;20106;-68
2022/07/22 03:25:38;;;;;;;;;;;;;;;16.51;100.00;99181.84;1705369;83;21169;-68
2022/07/22 03:28:06;;;;;;;;;;;;;;;16.60;100.00;99187.36;1686705;82;20598;-68
2022/07/22 03:30:33;;;;;;;;;;;;;;;16.70;100.00;99194.72;1711902;82;20086;-68
2022/07/22 03:33:00;;;;;;;;;;;;;;;16.82;100.00;99193.44;1721309;82;20121;-69
2022/07/22 03:35:27;;;;;;;;;;;;;;;16.94;100.00;99189.66;1737219;82;20120;-68
2022/07/22 03:37:57;;;;;;;;;;;;;;;17.03;100.00;99191.10;1740329;82;20181;-69
2022/07/22 03:40:24;;;;;;;;;;;;;;;17.16;100.00;99188.09;1738362;82;20088;-69
2022/07/22 03:42:53;;;;;;;;;;;;;;;17.28;100.00;99196.50;1722786;81;20111;-67
2022/07/22 03:45:20;;;;;;;;;;;;;;;17.40;100.00;99194.60;1737561;82;20095;-70
2022/07/22 03:47:48;;;;;;;;;;;;;;;17.55;100.00;99197.73;1737073;81;20098;-68
2022/07/22 03:50:15;;;;;;;;;;;;;;;17.68;100.00;99197.41;1686053;84;21241;-68
2022/07/22 03:52:42;;;;;;;;;;;;;;;17.81;100.00;99194.44;1691574;84;20445;-70
2022/07/22 03:55:10;;;;;;;;;;;;;;;17.92;100.00;99203.11;1690701;83;20123;-69
2022/07/22 03:57:36;;;;;;;;;;;;;;;17.99;100.00;99192.61;1691022;83;20127;-69
2022/07/22 04:00:07;;;;;;;;;;;;;;;18.11;100.00;99196.11;1680932;84;20116;-68
2022/07/22 04:02:35;;;;;;;;;;;;;;;18.30;100.00;99204.00;1685398;83;21171;-69
2022/07/22 04:05:05;;;;;;;;;;;;;;;18.37;100.00;99212.50;1690559;83;20124;-69
2022/07/22 04:07:32;;;;;;;;;;;;;;;18.60;100.00;99210.52;1690397;84;20104;-68
2022/07/22 04:10:04;;;;;;;;;;;;;;;18.79;100.00;99217.06;1691444;83;20115;-68
2022/07/22 04:12:28;;;;;;;;;;;;;;;19.01;100.00;99216.97;1688429;84;20123;-69
2022/07/22 04:15:00;;;;;;;;;;;;;;;19.27;100.00;99217.53;1688214;84;20177;-70
2022/07/22 04:17:27;;;;;;;;;;;;;;;19.39;100.00;99219.62;1690761;83;20172;-68
2022/07/22 04:19:57;;;;;;;;;;;;;;;19.51;100.00;99220.35;1688805;84;20091;-69
2022/07/22 04:22:26;;;;;;;;;;;;;;;19.64;100.00;99228.33;1701605;83;20441;-69
2022/07/22 04:24:53;;;;;;;;;;;;;;;19.78;100.00;99219.23;1704917;84;20117;-68
2022/07/22 04:27:19;;;;;;;;;;;;;;;19.85;100.00;99216.25;1704127;83;21145;-69
2022/07/22 04:29:46;;;;;;;;;;;;;;;20.00;100.00;99225.03;1702545;83;20156;-68
2022/07/22 04:32:13;;;;;;;;;;;;;;;20.03;100.00;99223.02;1703925;83;20086;-68
2022/07/22 04:34:39;;;;;;;;;;;;;;;19.93;100.00;99224.73;1700598;82;20159;-68
2022/07/22 04:37:06;;;;;;;;;;;;;;;19.87;100.00;99224.90;1701718;83;20163;-69
2022/07/22 04:39:34;;;;;;;;;;;;;;;20.07;100.00;99229.42;1701621;83;21313;-68
2022/07/22 04:42:01;;;;;;;;;;;;;;;20.19;100.00;99233.64;1701108;83;20497;-68
2022/07/22 04:44:30;;;;;;;;;;;;;;;20.37;100.00;99224.83;1701270;83;20086;-68
2022/07/22 04:46:57;;;;;;;;;;;;;;;20.48;100.00;99232.89;1708551;82;20124;-67
2022/07/22 04:49:25;;;;;;;;;;;;;;;20.95;100.00;99236.92;1725845;82;20093;-68
2022/07/22 04:51:53;;;;;;;;;;;;;;;21.35;100.00;99242.50;1726688;83;21274;-65
2022/07/22 04:54:21;;;;;;;;;;;;;;;21.29;100.00;99241.91;1724070;83;20134;-68
2022/07/22 04:56:48;;;;;;;;;;;;;;;21.32;100.00;99243.97;1725957;83;20108;-69
2022/07/22 04:59:15;;;;;;;;;;;;;;;21.67;100.00;99247.01;1705969;82;20097;-70
2022/07/22 05:01:42;;;;;;;;;;;;;;;21.82;100.00;99249.11;1737403;81;20083;-70
2022/07/22 05:04:08;;;;;;;;;;;;;;;21.84;100.00;99246.27;1738936;82;21209;-68
2022/07/22 05:06:36;;;;;;;;;;;;;;;21.68;100.00;99256.79;1745908;82;20437;-67
2022/07/22 05:09:03;;;;;;;;;;;;;;;22.10;100.00;99259.44;1730768;82;20095;-68
2022/07/22 05:11:31;;;;;;;;;;;;;;;22.36;100.00;99264.08;1738598;82;20099;-68
2022/07/22 05:13:58;;;;;;;;;;;;;;;22.79;100.00;99266.86;1742219;82;20118;-68
2022/07/22 05:16:25;;;;;;;;;;;;;;;23.08;100.00;99274.64;1730120;82;21252;-68
2022/07/22 05:18:52;;;;;;;;;;;;;;;22.96;100.00;99268.56;1728809;82;20410;-70
2022/07/22 05:21:20;;;;;;;;;;;;;;;23.01;100.00;99274.41;1736022;82;20103;-69
2022/07/22 05:23:48;;;;;;;;;;;;;;;23.25;100.00;99280.41;1733935;82;20136;-70
2022/07/22 05:26:16;;;;;;;;;;;;;;;23.41;100.00;99275.02;1727100;82;20472;-69
2022/07/22 05:28:43;;;;;;;;;;;;;;;23.61;100.00;99269.92;1737320;82;21162;-67
2022/07/22 05:31:10;;;;;;;;;;;;;;;23.46;100.00;99271.46;1741054;82;20123;-67
2022/07/22 05:33:37;;;;;;;;;;;;;;;23.82;100.00;99279.95;1731087;82;20123;-68
2022/07/22 05:36:09;;;;;;;;;;;;;;;24.04;100.00;99284.08;1780557;80;20113;-68
2022/07/22 05:38:37;;;;;;;;;;;;;;;24.35;100.00;99277.27;1766389;80;20080;-68
2022/07/22 05:41:05;;;;;;;;;;;;;;;24.07;100.00;99280.62;1759765;80;21388;-68
2022/07/22 05:43:32;;;;;;;;;;;;;;;23.95;100.00;99276.78;1735064;82;20071;-67
2022/07/22 05:45:59;;;;;;;;;;;;;;;24.10;100.00;99280.70;1744800;82;20087;-68
2022/07/22 05:48:25;;;;;;;;;;;;;;;23.96;100.00;99282.51;1734716;82;20428;-71
2022/07/22 05:50:52;;;;;;;;;;;;;;;23.87;100.00;99280.48;1696944;82;20219;-68
2022/07/22 05:53:19;;;;;;;;;;;;;;;23.76;100.00;99284.86;1699396;82;21125;-70
2022/07/22 05:55:45;;;;;;;;;;;;;;;23.72;100.00;99282.00;1715756;82;20097;-67
2022/07/22 05:58:14;;;;;;;;;;;;;;;23.54;100.00;99284.79;1705427;82;20141;-69
2022/07/22 06:00:42;;;;;;;;;;;;;;;23.73;100.00;99278.13;1694987;82;20101;-68
2022/07/22 06:03:08;;;;;;;;;;;;;;;24.08;99.44;99282.20;1710992;82;20101;-68
2022/07/22 06:05:38;;;;;;;;;;;;;;;24.35;93.12;99283.31;1691269;82;21215;-68
2022/07/22 06:08:06;;;;;;;;;;;;;;;24.54;90.34;99285.39;1694871;82;20458;-68
2022/07/22 06:10:38;;;;;;;;;;;;;;;24.62;92.17;99287.73;1692105;82;20439;-68
2022/07/22 06:13:05;;;;;;;;;;;;;;;24.95;91.33;99290.91;1718770;82;20084;-70
2022/07/22 06:15:32;;;;;;;;;;;;;;;25.39;85.64;99292.13;1694928;82;20089;-69
2022/07/22 06:17:59;;;;;;;;;;;;;;;25.24;76.48;99288.84;1704449;82;22239;-68
2022/07/22 06:20:26;;;;;;;;;;;;;;;25.05;86.83;99291.52;1706058;82;20118;-66
2022/07/22 06:22:54;;;;;;;;;;;;;;;24.48;85.47;99290.94;1717699;82;20101;-68
2022/07/22 06:25:20;;;;;;;;;;;;;;;23.62;95.93;99286.61;1694105;82;20117;-69
2022/07/22 06:27:48;;;;;;;;;;;;;;;23.38;98.85;99291.58;1710766;82;20455;-69
2022/07/22 06:30:15;;;;;;;;;;;;;;;23.32;100.00;99288.28;1701096;82;21276;-68
2022/07/22 06:32:42;;;;;;;;;;;;;;;23.86;96.15;99286.30;1713096;82;20458;-68
2022/07/22 06:35:09;;;;;;;;;;;;;;;23.96;94.99;99284.45;1723402;82;20089;-68
2022/07/22 06:37:36;;;;;;;;;;;;;;;24.27;84.16;99289.77;1688505;83;20426;-67
2022/07/22 06:40:05;;;;;;;;;;;;;;;23.99;84.99;99288.44;1708036;82;20077;-68
2022/07/22 06:42:50;;;;;;;;;;;;;;;23.98;87.28;99286.83;1715323;82;21162;-69
2022/07/22 06:45:21;;;;;;;;;;;;;;;24.04;85.51;99286.81;1701787;82;20125;-70
2022/07/22 06:47:52;;;;;;;;;;;;;;;24.52;78.32;99280.28;1702126;82;20093;-68
2022/07/22 06:50:19;;;;;;;;;;;;;;;24.67;71.40;99286.91;1722314;83;20097;-66
2022/07/22 06:52:48;;;;;;;;;;;;;;;24.65;75.61;99287.05;1729380;82;20159;-70
2022/07/22 06:55:15;;;;;;;;;;;;;;;24.46;72.00;99298.14;1736875;82;21171;-70
2022/07/22 06:57:43;;;;;;;;;;;;;;;24.50;71.80;99289.98;1766719;80;20557;-67
2022/07/22 07:00:12;;;;;;;;;;;;;;;24.43;75.87;99291.17;1768748;80;20141;-69
2022/07/22 07:02:44;;;;;;;;;;;;;;;24.36;80.53;99289.03;1742294;80;20085;-70
2022/07/22 07:05:10;;;;;;;;;;;;;;;24.47;77.74;99295.60;1758586;80;20092;-67
2022/07/22 07:07:37;;;;;;;;;;;;;;;24.83;77.36;99297.08;1764688;80;21295;-68
2022/07/22 07:10:06;;;;;;;;;;;;;;;25.30;71.68;99303.09;1768015;80;20144;-68
2022/07/22 07:12:34;;;;;;;;;;;;;;;25.17;69.33;99299.09;1774538;80;20161;-69
2022/07/22 07:15:11;;;;;;;;;;;;;;;25.29;68.08;99307.00;1770230;80;20378;-70
2022/07/22 07:17:38;;;;;;;;;;;;;;;25.36;62.89;99310.70;1777308;80;20104;-68
2022/07/22 07:20:07;;;;;;;;;;;;;;;25.44;63.84;99305.57;1765576;80;21166;-70
2022/07/22 07:22:34;;;;;;;;;;;;;;;25.17;66.19;99307.91;1772950;80;20081;-68
2022/07/22 07:25:05;;;;;;;;;;;;;;;25.34;67.24;99299.27;1770287;80;20104;-68
2022/07/22 07:27:33;;;;;;;;;;;;;;;25.63;63.74;99310.88;1771049;80;20449;-68
2022/07/22 07:30:00;;;;;;;;;;;;;;;25.70;63.94;99311.03;1737421;82;20075;-71
2022/07/22 07:32:27;;;;;;;;;;;;;;;25.73;57.46;99310.30;1781355;80;21249;-71
2022/07/22 07:34:54;;;;;;;;;;;;;;;25.48;58.03;99315.84;1726290;82;20083;-72
2022/07/22 07:37:20;;;;;;;;;;;;;;;25.15;61.27;99310.19;1724911;82;20083;-67
2022/07/22 07:39:47;;;;;;;;;;;;;;;25.15;65.17;99295.87;1774971;80;20116;-67
2022/07/22 07:42:14;;;;;;;;;;;;;;;25.34;67.88;99303.39;1732084;81;20098;-69
2022/07/22 07:44:41;;;;;;;;;;;;;;;25.41;61.34;99306.30;1736469;82;21335;-66
2022/07/22 07:47:08;;;;;;;;;;;;;;;25.53;62.02;99308.13;1727106;82;20397;-67
2022/07/22 07:49:35;;;;;;;;;;;;;;;26.18;61.61;99317.69;1698670;83;20074;-70
2022/07/22 07:52:02;;;;;;;;;;;;;;;26.10;56.35;99314.01;1695377;83;20121;-70
2022/07/22 07:54:28;;;;;;;;;;;;;;;25.83;56.50;99317.97;1694719;83;20085;-68
2022/07/22 07:56:56;;;;;;;;;;;;;;;25.49;61.10;99311.36;1698287;83;21170;-67
2022/07/22 07:59:23;;;;;;;;;;;;;;;25.92;56.87;99316.97;1698619;83;20451;-68
2022/07/22 08:05:38;;;;;;;4.50;3.22;;;;;;;25.91;57.32;99312.64;1868270;75;26214;-68
2022/07/22 08:08:07;;;;;;;5.12;3.00;;;;;;;26.03;56.08;99320.74;1836475;77;20965;-68
2022/07/22 08:10:34;;;;;;;6.67;3.40;;;;;;;25.66;55.33;99325.27;1822054;76;21299;-68
2022/07/22 08:13:20;;;;;;;6.25;3.22;;;;;;;25.36;58.17;99325.81;1855261;77;20965;-69
2022/07/22 08:15:51;;;;;;;5.05;2.80;;;;;;;25.87;56.10;99333.18;1793306;78;20885;-68
2022/07/22 08:18:26;;;;;;;3.12;2.83;;;;;;;25.84;54.71;99323.67;1777632;79;21476;-68
2022/07/22 08:20:53;;;;;;;4.15;3.00;;;;;;;25.37;56.30;99327.97;1804999;78;20964;-68
2022/07/22 08:23:23;;;;;;;7.62;2.70;;;;;;;25.84;57.67;99331.13;1788584;78;21151;-68
2022/07/22 08:25:50;;;;;;;3.33;2.50;;;;;;;26.36;54.65;99327.08;1802600;78;21520;-68
2022/07/22 08:28:17;;;;;;;8.90;3.27;;;;;;;26.03;56.62;99335.28;1795186;78;21015;-67
2022/07/22 08:30:44;;;;;;;;;;;;;;;25.79;55.62;99334.95;1805102;78;20909;-68
2022/07/22 08:33:11;;;;;;;7.22;3.58;;;;;;;26.11;54.58;99331.30;1789605;79;20119;-68
2022/07/22 08:35:38;;;;;;;8.70;2.17;;;;;;;26.39;52.53;99338.72;1784030;79;21233;-68
2022/07/22 08:38:05;;;;;;;5.53;2.30;;;;;;;26.39;51.66;99342.06;1806015;78;21482;-67
2022/07/22 08:40:33;;;;;;;3.90;2.52;;;;;;;26.24;48.84;99339.03;1800480;78;20948;-69
2022/07/22 08:43:03;;;;;;;2.98;2.30;;;;;;;26.12;50.10;99339.20;1805493;78;21440;-68
2022/07/22 08:45:31;;;;;;;12.80;2.83;;;;;;;26.00;48.95;99332.47;1791203;78;21015;-69
2022/07/22 08:48:05;;;;;;;3.20;2.40;;;;;;;26.09;50.01;99336.59;1798068;78;21489;-71
2022/07/22 08:50:42;;;;;;;5.37;2.90;;;;;;;26.22;49.25;99344.10;1796812;78;20922;-70
2022/07/22 08:53:12;;;;;;;8.93;2.98;;;;;;;26.46;48.46;99340.23;1787367;78;21036;-67
2022/07/22 08:55:45;;;;;;;3.77;2.42;;;;;;;26.42;48.24;99339.95;1796718;78;20873;-70
2022/07/22 08:58:12;;;;;;;2.55;2.35;;;;;;;26.62;46.72;99349.77;1798075;78;20881;-68
2022/07/22 09:00:39;;;;;;;5.00;2.75;;;;;;;26.64;48.49;99342.53;1802674;78;21231;-69
2022/07/22 09:03:22;;;;;;;4.65;2.67;;;;;;;27.01;47.01;99340.58;1802453;78;20873;-72
2022/07/22 09:05:51;;;;;;;2.98;2.10;;;;;;;27.05;46.49;99344.98;1793934;78;20928;-66
2022/07/22 09:08:20;;;;;;;3.77;2.25;;;;;;;26.64;46.76;99339.19;1795300;78;20932;-69
2022/07/22 09:10:56;;;;;;;5.60;2.05;;;;;;;26.55;47.75;99343.34;1788203;78;20992;-69
2022/07/22 09:13:43;;;;;;;14.90;3.05;;;;;;;26.86;46.12;99355.48;1790940;78;21150;-66
2022/07/22 09:16:45;;;;;;;9.33;2.50;;;;;;;27.19;47.49;99347.77;1701949;82;21604;-70
2022/07/22 09:19:14;;;;;;;3.47;2.30;;;;;;;27.23;44.71;99346.66;1676797;84;21043;-67
2022/07/22 09:21:59;;;;;;;3.90;2.20;;;;;;;27.20;44.86;99346.02;1707804;84;20857;-68
2022/07/22 09:24:34;;;;;;;2.45;2.12;;;;;;;27.27;45.52;99340.63;1717214;82;20921;-69
2022/07/22 09:27:06;;;;;;;5.20;2.67;;;;;;;26.90;45.80;99345.92;1737398;81;26364;-69
2022/07/22 09:29:52;;;;;;;6.37;2.85;;;;;;;27.11;46.20;99351.75;1737305;82;20991;-68
2022/07/22 09:32:20;;;;;;;6.55;2.55;;;;;;;26.95;44.66;99353.87;1738948;81;21490;-69
2022/07/22 09:35:16;;;;;;;3.50;2.52;;;;;;;27.18;46.42;99348.91;1731931;82;20897;-69
2022/07/22 09:37:53;;;;;;;7.12;2.55;;;;;;;27.64;42.16;99351.57;1687074;83;21011;-69
2022/07/22 09:40:30;;;;;;;5.22;2.42;;;;;;;28.10;44.24;99358.25;1684048;83;21455;-68
2022/07/22 09:43:06;;;;;;;5.72;2.58;;;;;;;28.20;43.29;99357.02;1698711;83;21028;-71
2022/07/22 09:45:34;;;;;;;6.58;2.50;;;;;;;28.05;42.56;99362.17;1702418;83;21107;-69
2022/07/22 09:48:04;;;;;;;7.72;2.33;;;;;;;28.16;41.88;99359.52;1704550;83;20949;-69
2022/07/22 09:50:36;;;;;;;2.90;2.00;;;;;;;28.17;42.62;99359.16;1672032;83;21026;-69
2022/07/22 09:53:05;;;;;;;7.17;2.37;;;;;;;28.59;43.31;99348.94;1716938;81;21246;-70
2022/07/22 09:55:37;;;;;;;4.08;2.40;;;;;;;28.35;43.35;99356.58;1751855;81;21024;-69
2022/07/22 09:58:03;;;;;;;5.72;2.70;;;;;;;27.96;42.83;99358.90;1753701;81;20882;-69
2022/07/22 10:00:31;;;;;;;3.58;2.50;;;;;;;28.36;41.71;99366.44;1751388;81;20898;-71
2022/07/22 10:03:01;;;;;;;8.05;2.70;;;;;;;28.12;41.67;99360.06;1751482;81;25942;-70
2022/07/22 10:05:40;;;;;;;6.70;2.55;;;;;;;28.10;42.28;99362.39;1752058;81;21024;-69
2022/07/22 10:08:08;;;;;;;3.47;2.37;;;;;;;28.30;40.91;99354.76;1747468;80;21134;-66
2022/07/22 10:10:37;;;;;;;4.20;2.42;;;;;;;27.77;40.40;99359.22;1752969;80;20934;-67
2022/07/22 10:13:05;;;;;;;5.35;3.10;;;;;;;27.55;43.21;99357.34;1750344;80;20968;-68
2022/07/22 10:15:34;;;;;;;4.33;2.52;;;;;;;27.92;42.56;99350.56;1737530;81;20985;-67
2022/07/22 10:18:15;;;;;;;4.37;2.90;;;;;;;28.09;41.57;99360.82;1751269;80;20973;-70
2022/07/22 10:20:43;;;;;;;6.40;2.92;;;;;;;27.54;41.04;99357.14;1752401;81;20918;-68
2022/07/22 10:23:13;;;;;;;4.08;2.87;;;;;;;27.50;43.01;99350.78;1751030;80;21574;-66
2022/07/22 10:25:53;;;;;;;9.23;3.30;;;;;;;27.46;42.95;99349.34;1737817;81;20993;-67
2022/07/22 10:28:27;;;;;;;6.65;2.58;;;;;;;28.03;42.83;99355.41;1748389;81;21447;-68
2022/07/22 10:31:15;;;;;;;3.70;2.72;;;;;;;28.36;41.19;99366.44;1754257;81;21227;-69
2022/07/22 10:33:45;;;;;;;3.83;2.77;;;;;;;28.29;39.93;99352.56;1752697;81;21033;-72
2022/07/22 10:36:13;;;;;;;7.28;3.02;;;;;;;28.16;40.53;99347.89;1754241;80;20929;-68
2022/07/22 10:38:58;;;;;;;11.78;3.15;;;;;;;27.76;41.04;99345.82;1751043;80;21024;-67
2022/07/22 10:41:34;;;;;;;3.83;2.90;;;;;;;27.85;42.45;99350.47;1729513;80;20870;-68
2022/07/22 10:44:01;;;;;;;7.47;2.63;;;;;;;28.09;40.12;99347.02;1692305;83;21217;-68
2022/07/22 10:46:54;;;;;;;3.35;2.70;;;;;;;27.91;41.88;99349.58;1682064;83;21437;-67
2022/07/22 10:49:25;;;;;;;11.08;2.65;;;;;;;28.32;41.75;99344.92;1707247;83;20950;-66
2022/07/22 10:52:16;;;;;;;5.20;2.42;;;;;;;28.62;40.13;99355.11;1702241;83;21560;-66
2022/07/22 10:55:21;;;;;;;8.53;2.42;;;;;;;28.79;40.91;99352.30;1699556;83;21505;-69
2022/07/22 10:57:49;;;;;;;5.60;2.52;;;;;;;28.73;40.19;99344.94;1677986;84;21175;-67
2022/07/22 11:00:16;;;;;;;;;;;;;;;28.74;39.52;99357.58;1679376;84;20968;-67
2022/07/22 11:02:44;;;;;;;4.70;2.20;;;;;;;28.29;39.66;99358.08;1672259;84;20108;-68
2022/07/22 11:05:11;;;;;;;4.20;2.50;;;;;;;27.92;39.79;99354.70;1734047;82;21524;-68
2022/07/22 11:07:45;;;;;;;3.42;1.95;;;;;;;27.63;40.56;99341.10;1737176;82;20896;-69
2022/07/22 11:10:18;;;;;;;9.20;2.22;;;;;;;27.31;42.10;99347.55;1735629;82;21248;-67
2022/07/22 11:12:47;;;;;;;5.85;2.10;;;;;;;27.07;42.14;99345.97;1736417;82;21131;-69
2022/07/22 11:15:15;;;;;;;5.58;2.20;;;;;;;27.11;41.63;99351.75;1735193;81;21562;-68
2022/07/22 11:17:42;;;;;;;2.45;1.98;;;;;;;27.39;40.04;99351.20;1737486;82;21117;-69
2022/07/22 11:20:13;;;;;;;2.35;2.00;;;;;;;27.45;42.93;99349.73;1735326;82;20990;-68
2022/07/22 11:22:40;;;;;;;4.53;2.30;;;;;;;27.58;41.96;99352.45;1733562;82;21903;-68
2022/07/22 11:25:10;;;;;;;4.42;2.02;;;;;;;27.87;39.39;99350.90;1734226;82;20922;-70
2022/07/22 11:27:38;;;;;;;4.47;1.92;;;;;;;28.03;39.20;99344.38;1737871;81;21002;-69
2022/07/22 11:30:07;;;;;;;2.80;1.90;;;;;;;27.98;40.02;99344.16;1752687;80;21028;-69
2022/07/22 11:32:39;;;;;;;5.42;2.30;;;;;;;27.79;39.20;99340.34;1753360;81;20871;-71
2022/07/22 11:35:12;;;;;;;5.87;2.50;;;;;;;27.74;39.87;99359.19;1748359;81;21609;-68
2022/07/22 11:37:38;;;;;;;6.05;2.70;;;;;;;27.85;39.39;99355.20;1754479;80;20882;-68
2022/07/22 11:40:08;;;;;;;4.40;1.98;;;;;;;27.86;40.62;99351.30;1751354;81;21491;-71
2022/07/22 11:42:36;;;;;;;3.92;2.55;;;;;;;28.17;39.34;99356.39;1751685;81;21064;-69
2022/07/22 11:45:05;;;;;;;6.03;2.02;;;;;;;28.37;39.74;99352.86;1751284;80;20901;-70
2022/07/22 11:47:32;;;;;;;3.65;2.10;;;;;;;28.66;38.02;99355.91;1753526;80;21118;-70
2022/07/22 11:49:59;;;;;;;8.00;1.95;;;;;;;28.64;37.99;99355.52;1751527;80;20968;-69
2022/07/22 11:52:26;;;;;;;3.80;2.02;;;;;;;28.72;37.55;99359.14;1749670;81;20874;-71
2022/07/22 11:54:52;;;;;;;4.73;2.27;;;;;;;28.21;38.23;99358.59;1751767;81;20926;-68
2022/07/22 11:57:19;;;;;;;2.87;2.05;;;;;;;27.93;39.36;99355.52;1753119;81;20890;-69
2022/07/22 11:59:46;;;;;;;4.37;2.20;;;;;;;28.20;40.53;99361.75;1754152;81;21505;-68
2022/07/22 12:02:14;;;;;;;4.70;2.12;;;;;;;28.36;40.40;99366.44;1752168;81;20921;-70
2022/07/22 12:04:41;;;;;;;4.00;2.45;;;;;;;28.54;38.99;99360.33;1752531;81;20889;-73
2022/07/22 12:07:11;;;;;;;3.67;1.95;;;;;;;28.60;36.31;99367.11;1751386;81;27161;-69
2022/07/22 12:09:41;;;;;;;2.80;1.80;;;;;;;28.43;36.84;99362.38;1750338;81;20913;-70
2022/07/22 12:12:09;;;;;;;4.30;2.02;;;;;;;28.63;36.21;99360.83;1749674;80;21520;-67
2022/07/22 12:14:37;;;;;;;5.80;2.47;;;;;;;28.71;36.14;99346.49;1752901;80;20838;-70
2022/07/22 12:17:14;;;;;;;6.00;2.40;;;;;;;28.42;36.87;99342.86;1711090;81;20963;-70
2022/07/22 12:19:39;;;;;;;3.77;2.40;;;;;;;28.24;37.57;99341.08;1752445;81;21598;-68
2022/07/22 12:22:21;;;;;;;4.28;2.10;;;;;;;28.43;37.83;99342.27;1753152;80;20881;-69
2022/07/22 12:25:01;;;;;;;4.33;2.10;;;;;;;28.76;37.43;99340.61;1751830;80;21380;-68
2022/07/22 12:27:30;;;;;;;9.63;2.30;;;;;;;28.93;37.71;99340.56;1751534;80;20875;-69
2022/07/22 12:29:57;;;;;;;3.02;1.80;;;;;;;28.77;38.73;99345.77;1752976;81;20882;-71